Time;durP1;ratioP1;P1;durP2;ratioP2;P2;SDS_P1;SDS_P2;PMS_P1;PMS_P2;Temp;Humidity;BMP_temperature;BMP_pressure;BME280_temperature;BME280_humidity;BME280_pressure;Samples;Min_cycle;Max_cycle;Signal;HPM_P1;HPM_P2
2023/07/16 00:01:16;;;;;;;0.00;0.00;;;;;;;23.27;55.34;100853.97;5031761;28;20034;-63
2023/07/16 00:03:42;;;;;;;0.00;0.00;;;;;;;23.07;54.88;100832.53;5031875;28;20030;-64
2023/07/16 00:06:07;;;;;;;0.00;0.00;;;;;;;22.91;56.77;100847.66;5029193;28;20103;-63
2023/07/16 00:08:32;;;;;;;0.00;0.00;;;;;;;23.29;55.78;100840.75;5032285;28;20037;-64
2023/07/16 00:10:58;;;;;;;0.05;0.05;;;;;;;23.32;55.96;100840.19;5031313;28;20551;-64
2023/07/16 00:13:23;;;;;;;0.03;0.03;;;;;;;23.25;56.71;100837.03;5031394;28;20033;-63
2023/07/16 00:15:48;;;;;;;0.10;0.10;;;;;;;23.30;56.96;100836.91;5031382;28;20528;-63
2023/07/16 00:18:14;;;;;;;0.10;0.10;;;;;;;22.69;60.75;100844.84;5031004;28;20083;-63
2023/07/16 00:20:39;;;;;;;0.10;0.10;;;;;;;22.91;61.81;100846.84;5031785;28;20060;-63
2023/07/16 00:23:05;;;;;;;0.00;0.00;;;;;;;22.70;62.82;100847.28;5013553;28;20517;-65
2023/07/16 00:25:30;;;;;;;0.10;0.10;;;;;;;22.86;62.98;100846.97;5028826;28;20037;-63
2023/07/16 00:27:55;;;;;;;0.05;0.05;;;;;;;22.66;65.31;100859.16;5030822;28;20038;-64
2023/07/16 00:30:21;;;;;;;0.10;0.10;;;;;;;22.78;65.12;100845.75;5030859;28;20045;-62
2023/07/16 00:32:46;;;;;;;0.00;0.00;;;;;;;22.78;65.49;100842.22;5026580;28;20052;-62
2023/07/16 00:35:11;;;;;;;0.10;0.10;;;;;;;21.68;70.42;100857.59;5030838;28;20037;-63
2023/07/16 00:37:37;;;;;;;0.10;0.10;;;;;;;22.03;69.58;100855.41;5030906;28;20034;-64
2023/07/16 00:40:04;;;;;;;0.10;0.10;;;;;;;22.42;68.43;100847.56;5030758;28;20022;-63
2023/07/16 00:42:29;;;;;;;0.13;0.13;;;;;;;22.22;67.89;100850.66;5030946;28;20029;-63
2023/07/16 00:44:54;;;;;;;0.03;0.03;;;;;;;22.69;65.48;100853.06;5040006;28;20512;-62
2023/07/16 00:47:21;;;;;;;0.00;0.00;;;;;;;22.65;65.25;100852.06;5031702;28;20464;-63
2023/07/16 00:49:47;;;;;;;0.08;0.08;;;;;;;22.22;65.43;100859.69;5030610;28;20033;-63
2023/07/16 00:52:18;;;;;;;0.10;0.10;;;;;;;21.92;64.52;100859.41;5030427;28;20033;-63
2023/07/16 00:54:43;;;;;;;0.10;0.10;;;;;;;22.40;63.55;100853.34;5012235;28;20049;-64
2023/07/16 00:57:09;;;;;;;0.00;0.00;;;;;;;22.58;62.64;100848.91;5030637;28;20037;-61
2023/07/16 00:59:34;;;;;;;0.10;0.10;;;;;;;22.51;62.33;100852.03;5031123;28;20025;-63
2023/07/16 01:01:59;;;;;;;0.00;0.00;;;;;;;22.33;62.97;100852.91;5030672;28;20033;-63
2023/07/16 01:04:25;;;;;;;0.10;0.10;;;;;;;22.20;62.04;100853.72;5030593;28;20038;-64
2023/07/16 01:06:53;;;;;;;0.10;0.10;;;;;;;22.38;61.97;100852.00;5030473;28;20079;-63
2023/07/16 01:09:20;;;;;;;0.00;0.00;;;;;;;21.82;62.76;100857.66;5030706;28;20026;-62
2023/07/16 01:11:47;;;;;;;0.08;0.08;;;;;;;21.88;61.03;100847.47;5030878;28;20124;-63
2023/07/16 01:14:14;;;;;;;0.10;0.10;;;;;;;21.38;60.22;100854.53;5012753;28;20041;-62
2023/07/16 01:16:40;;;;;;;0.00;0.00;;;;;;;21.63;58.65;100851.38;5030478;28;20466;-65
2023/07/16 01:19:06;;;;;;;0.00;0.00;;;;;;;21.76;57.95;100853.34;5030472;28;20417;-64
2023/07/16 01:21:41;;;;;;;0.00;0.00;;;;;;;22.06;57.45;100852.06;5030086;28;20033;-63
2023/07/16 01:24:35;;;;;;;0.00;0.00;;;;;;;21.90;56.81;100861.63;5011856;28;20053;-62
2023/07/16 01:27:19;;;;;;;0.00;0.00;;;;;;;21.98;56.60;100853.56;5030165;28;20140;-63
2023/07/16 01:29:57;;;;;;;0.10;0.10;;;;;;;22.13;56.09;100847.03;5028298;28;20148;-62
2023/07/16 01:32:24;;;;;;;0.10;0.10;;;;;;;22.16;55.64;100849.97;5030310;28;20049;-63
2023/07/16 01:34:52;;;;;;;0.10;0.10;;;;;;;22.14;55.90;100856.84;5030075;28;20397;-64
2023/07/16 01:37:18;;;;;;;0.10;0.10;;;;;;;22.11;55.43;100851.97;5028427;28;20052;-64
2023/07/16 01:39:43;;;;;;;0.10;0.10;;;;;;;21.94;55.80;100844.31;5028206;28;20073;-64
2023/07/16 01:42:08;;;;;;;0.00;0.00;;;;;;;22.40;54.67;100858.81;5028516;28;20025;-63
2023/07/16 01:44:34;;;;;;;0.10;0.10;;;;;;;22.22;54.28;100846.00;5039706;28;20040;-66
2023/07/16 01:47:13;;;;;;;0.00;0.00;;;;;;;22.02;54.94;100851.84;5029866;28;20033;-65
2023/07/16 01:49:39;;;;;;;0.10;0.10;;;;;;;22.38;54.07;100849.28;5029202;28;20034;-63
2023/07/16 01:52:07;;;;;;;0.00;0.00;;;;;;;22.18;54.56;100844.16;5029873;28;20048;-63
2023/07/16 01:54:33;;;;;;;0.10;0.10;;;;;;;22.26;54.13;100847.03;5029594;28;20124;-64
2023/07/16 01:56:58;;;;;;;0.10;0.10;;;;;;;22.67;53.12;100845.16;5029995;28;20511;-62
2023/07/16 01:59:24;;;;;;;0.10;0.10;;;;;;;22.42;54.31;100851.13;5030358;28;20025;-64
2023/07/16 02:01:49;;;;;;;0.00;0.00;;;;;;;22.72;53.72;100846.16;5029635;28;20087;-65
2023/07/16 02:04:14;;;;;;;0.03;0.03;;;;;;;22.14;56.12;100849.44;5029470;28;20624;-63
2023/07/16 02:06:40;;;;;;;0.00;0.00;;;;;;;22.14;55.99;100846.72;5029472;28;20069;-63
2023/07/16 02:09:05;;;;;;;0.10;0.10;;;;;;;21.79;56.04;100837.19;5029847;28;20025;-63
2023/07/16 02:11:30;;;;;;;0.10;0.10;;;;;;;21.85;56.04;100851.59;5030145;28;20029;-62
2023/07/16 02:13:56;;;;;;;0.10;0.10;;;;;;;21.51;56.53;100838.19;5029744;28;20193;-64
2023/07/16 02:16:21;;;;;;;0.10;0.10;;;;;;;21.53;56.68;100841.44;5028663;28;20523;-63
2023/07/16 02:18:46;;;;;;;0.10;0.10;;;;;;;21.70;56.28;100851.81;5010992;28;20041;-63
2023/07/16 02:21:12;;;;;;;0.10;0.10;;;;;;;21.50;56.45;100850.22;5029148;28;20041;-65
2023/07/16 02:23:37;;;;;;;0.10;0.10;;;;;;;22.06;55.26;100847.41;5029607;28;20100;-64
2023/07/16 02:26:03;;;;;;;0.10;0.10;;;;;;;21.65;56.66;100854.63;5026960;28;20036;-62
2023/07/16 02:28:28;;;;;;;0.10;0.10;;;;;;;21.69;56.70;100851.03;5029029;28;20401;-64
2023/07/16 02:30:53;;;;;;;0.10;0.10;;;;;;;21.98;55.08;100853.56;5026827;28;20386;-63
2023/07/16 02:33:19;;;;;;;0.10;0.10;;;;;;;21.69;56.14;100859.22;5028902;28;20060;-65
2023/07/16 02:35:48;;;;;;;0.10;0.10;;;;;;;21.77;56.11;100857.72;5029524;28;20037;-63
2023/07/16 02:38:14;;;;;;;0.03;0.03;;;;;;;21.62;56.22;100852.50;5028987;28;20026;-63
2023/07/16 02:40:47;;;;;;;0.00;0.00;;;;;;;21.62;56.71;100856.03;5028467;28;20401;-64
2023/07/16 02:43:12;;;;;;;0.10;0.10;;;;;;;21.59;57.13;100853.09;5032827;28;20043;-64
2023/07/16 02:45:37;;;;;;;0.10;0.10;;;;;;;21.73;56.59;100849.31;5042295;28;20041;-65
2023/07/16 02:48:05;;;;;;;0.10;0.10;;;;;;;21.23;57.65;100857.50;5032770;28;20029;-64
2023/07/16 02:50:33;;;;;;;0.10;0.10;;;;;;;21.52;57.69;100858.13;5033368;28;20504;-64
2023/07/16 02:52:58;;;;;;;0.10;0.10;;;;;;;21.29;58.48;100854.38;5032896;28;20065;-65
2023/07/16 02:55:23;;;;;;;0.10;0.10;;;;;;;21.76;56.66;100862.38;5012322;28;20544;-63
2023/07/16 02:57:49;;;;;;;0.10;0.10;;;;;;;21.65;57.28;100868.31;5032817;28;20037;-62
2023/07/16 03:00:19;;;;;;;0.10;0.10;;;;;;;21.60;57.06;100865.69;5032745;28;20030;-63
2023/07/16 03:02:44;;;;;;;0.00;0.00;;;;;;;22.00;56.92;100856.00;5033358;28;20037;-62
2023/07/16 03:05:10;;;;;;;0.10;0.10;;;;;;;21.96;56.25;100863.16;5032713;28;20033;-62
2023/07/16 03:07:35;;;;;;;0.10;0.10;;;;;;;21.36;58.73;100859.47;5032846;28;20404;-62
2023/07/16 03:10:01;;;;;;;0.10;0.10;;;;;;;21.69;57.46;100880.28;5032580;28;20052;-63
2023/07/16 03:12:26;;;;;;;0.00;0.00;;;;;;;21.81;57.17;100870.56;5032384;28;20231;-64
2023/07/16 03:14:54;;;;;;;0.10;0.10;;;;;;;21.84;56.94;100869.94;5032623;28;20033;-64
2023/07/16 03:17:20;;;;;;;0.00;0.00;;;;;;;21.57;57.62;100875.28;5032972;28;20021;-63
2023/07/16 03:19:46;;;;;;;0.10;0.10;;;;;;;21.20;59.03;100861.63;5032425;28;20115;-63
2023/07/16 03:22:11;;;;;;;0.10;0.10;;;;;;;21.55;58.01;100868.47;5019732;28;20116;-63
2023/07/16 03:24:36;;;;;;;0.00;0.00;;;;;;;21.81;57.73;100861.53;5012278;28;20042;-64
2023/07/16 03:27:02;;;;;;;0.10;0.10;;;;;;;21.27;59.16;100864.78;5012562;28;20064;-63
2023/07/16 03:29:27;;;;;;;0.10;0.10;;;;;;;21.62;58.06;100863.44;5013183;28;20293;-64
2023/07/16 03:31:53;;;;;;;0.10;0.10;;;;;;;21.46;59.31;100867.53;5012267;28;20069;-62
2023/07/16 03:34:18;;;;;;;0.00;0.00;;;;;;;21.15;60.01;100861.66;5012761;28;20516;-65
2023/07/16 03:36:43;;;;;;;0.10;0.10;;;;;;;21.33;59.54;100873.72;5012282;28;20041;-63
2023/07/16 03:39:09;;;;;;;0.10;0.10;;;;;;;21.36;59.54;100873.16;5012449;28;20038;-66
2023/07/16 03:41:34;;;;;;;0.10;0.10;;;;;;;21.03;60.17;100869.47;5012991;28;20033;-63
2023/07/16 03:43:59;;;;;;;0.10;0.10;;;;;;;20.95;61.15;100883.78;5022393;28;20076;-64
2023/07/16 03:46:25;;;;;;;0.10;0.10;;;;;;;21.02;61.30;100873.34;5031789;28;20041;-60
2023/07/16 03:48:51;;;;;;;0.10;0.10;;;;;;;21.92;58.13;100886.78;5031762;28;20397;-64
2023/07/16 03:51:17;;;;;;;0.10;0.10;;;;;;;21.95;58.46;100881.53;5031382;28;20061;-62
2023/07/16 03:53:42;;;;;;;0.10;0.10;;;;;;;22.00;57.66;100886.09;5032078;28;20022;-65
2023/07/16 03:56:07;;;;;;;0.10;0.10;;;;;;;21.58;59.46;100892.50;5031744;28;20085;-63
2023/07/16 03:58:33;;;;;;;0.08;0.08;;;;;;;21.80;59.19;100889.94;5031825;28;20494;-63
2023/07/16 04:00:58;;;;;;;0.10;0.10;;;;;;;21.07;61.33;100880.66;5029138;28;20026;-64
2023/07/16 04:03:24;;;;;;;0.10;0.10;;;;;;;21.28;61.20;100882.00;5011778;28;20034;-63
2023/07/16 04:05:49;;;;;;;0.10;0.10;;;;;;;21.63;59.66;100893.25;5014990;28;20033;-65
2023/07/16 04:08:14;;;;;;;0.10;0.10;;;;;;;21.64;59.44;100894.84;5012011;28;20478;-62
2023/07/16 04:10:40;;;;;;;0.10;0.10;;;;;;;21.30;60.25;100894.28;5018059;28;20034;-61
2023/07/16 04:13:05;;;;;;;0.10;0.10;;;;;;;20.73;62.43;100897.16;5028677;28;20040;-61
2023/07/16 04:15:30;;;;;;;0.10;0.10;;;;;;;21.00;61.27;100892.72;5030922;28;20041;-63
2023/07/16 04:17:56;;;;;;;0.10;0.10;;;;;;;20.84;62.17;100898.66;5026484;28;20052;-64
2023/07/16 04:20:21;;;;;;;0.00;0.00;;;;;;;21.42;60.69;100902.03;5031858;28;20017;-63
2023/07/16 04:22:47;;;;;;;0.10;0.10;;;;;;;21.43;60.56;100904.47;5031168;28;20218;-62
2023/07/16 04:25:13;;;;;;;0.10;0.10;;;;;;;21.04;61.68;100903.09;5031062;28;20037;-64
2023/07/16 04:27:41;;;;;;;0.00;0.00;;;;;;;21.72;60.02;100904.28;5031196;28;20029;-64
2023/07/16 04:30:07;;;;;;;0.10;0.10;;;;;;;21.46;60.18;100892.94;5031285;28;20061;-63
2023/07/16 04:32:33;;;;;;;0.10;0.10;;;;;;;21.21;61.08;100904.22;5031614;28;20060;-63
2023/07/16 04:34:58;;;;;;;0.10;0.10;;;;;;;21.30;61.01;100901.66;5031230;28;20501;-64
2023/07/16 04:37:23;;;;;;;0.10;0.10;;;;;;;21.72;59.90;100913.31;5031161;28;20041;-62
2023/07/16 04:39:49;;;;;;;0.10;0.10;;;;;;;21.70;60.12;100915.53;5030790;28;20559;-63
2023/07/16 04:42:16;;;;;;;0.10;0.10;;;;;;;21.44;60.66;100917.06;5031206;28;20029;-63
2023/07/16 04:44:42;;;;;;;0.10;0.10;;;;;;;21.08;61.36;100912.34;5046991;28;20028;-62
2023/07/16 04:47:07;;;;;;;0.10;0.10;;;;;;;21.26;61.08;100926.03;5050617;28;20052;-64
2023/07/16 04:49:34;;;;;;;0.10;0.10;;;;;;;21.78;59.21;100920.34;5050771;28;20029;-63
2023/07/16 04:52:00;;;;;;;0.00;0.00;;;;;;;21.30;60.71;100921.63;5050483;28;20120;-65
2023/07/16 04:54:25;;;;;;;0.10;0.10;;;;;;;21.49;60.67;100922.44;5048730;28;20099;-63
2023/07/16 04:56:50;;;;;;;0.10;0.10;;;;;;;21.44;60.75;100922.53;5050677;28;20036;-65
2023/07/16 04:59:16;;;;;;;0.10;0.10;;;;;;;21.05;62.48;100924.66;5051266;28;20388;-64
2023/07/16 05:01:41;;;;;;;0.10;0.10;;;;;;;21.21;61.28;100928.81;5050517;28;20025;-64
2023/07/16 05:04:07;;;;;;;0.10;0.10;;;;;;;21.47;61.19;100929.28;5049508;28;20424;-63
2023/07/16 05:06:33;;;;;;;0.10;0.10;;;;;;;21.22;61.43;100938.66;5050667;28;20091;-62
2023/07/16 05:08:58;;;;;;;0.10;0.10;;;;;;;21.42;61.48;100935.66;5050163;28;20396;-65
2023/07/16 05:11:25;;;;;;;0.10;0.10;;;;;;;21.14;61.62;100944.78;5050760;28;20021;-62
2023/07/16 05:13:50;;;;;;;0.03;0.03;;;;;;;21.47;60.84;100949.25;5042971;28;20686;-63
2023/07/16 05:16:16;;;;;;;0.10;0.10;;;;;;;21.13;61.95;100956.00;5030062;28;20042;-64
2023/07/16 05:18:41;;;;;;;0.10;0.10;;;;;;;21.07;61.92;100944.31;5029925;28;20493;-64
2023/07/16 05:21:07;;;;;;;0.10;0.10;;;;;;;21.00;61.74;100949.28;5027488;28;20103;-63
2023/07/16 05:23:32;;;;;;;0.10;0.10;;;;;;;20.77;62.41;100953.66;5030774;28;20083;-63
2023/07/16 05:25:58;;;;;;;0.10;0.10;;;;;;;21.34;61.59;100960.09;5028903;28;20115;-64
2023/07/16 05:28:24;;;;;;;0.10;0.10;;;;;;;20.90;62.54;100963.88;5030041;28;20505;-62
2023/07/16 05:30:58;;;;;;;0.10;0.10;;;;;;;21.42;61.36;100963.00;5027160;28;20041;-64
2023/07/16 05:33:23;;;;;;;0.10;0.10;;;;;;;20.84;61.50;100961.50;5030185;28;20036;-63
2023/07/16 05:35:50;;;;;;;0.10;0.10;;;;;;;21.25;60.85;100964.59;5030683;28;20029;-65
2023/07/16 05:38:15;;;;;;;0.10;0.10;;;;;;;21.89;59.03;100962.09;5029866;28;20065;-64
2023/07/16 05:40:40;;;;;;;0.00;0.00;;;;;;;21.93;58.19;100960.38;5030051;28;20080;-64
2023/07/16 05:43:06;;;;;;;0.10;0.10;;;;;;;21.38;59.55;100970.19;5029451;28;20493;-65
2023/07/16 05:45:31;;;;;;;0.10;0.10;;;;;;;21.39;59.37;100973.69;5030078;28;20045;-65
2023/07/16 05:47:57;;;;;;;0.10;0.10;;;;;;;21.14;59.03;100983.03;5029711;28;20025;-64
2023/07/16 05:50:22;;;;;;;0.10;0.10;;;;;;;21.46;59.79;100965.97;5029974;28;20025;-62
2023/07/16 05:52:49;;;;;;;0.10;0.10;;;;;;;21.68;58.86;100964.25;5029565;28;20570;-63
2023/07/16 05:55:14;;;;;;;0.05;0.05;;;;;;;21.25;60.02;100979.06;5029546;28;20050;-65
2023/07/16 05:57:40;;;;;;;0.10;0.10;;;;;;;21.76;58.51;100963.59;5011950;28;20041;-64
2023/07/16 06:00:06;;;;;;;0.10;0.10;;;;;;;21.14;60.45;100979.50;5029614;28;20037;-63
2023/07/16 06:02:32;;;;;;;0.10;0.10;;;;;;;21.98;58.16;100989.56;5030098;28;20025;-64
2023/07/16 06:04:57;;;;;;;0.00;0.00;;;;;;;21.96;58.52;100983.59;5029145;28;20034;-63
2023/07/16 06:07:23;;;;;;;0.10;0.10;;;;;;;21.92;58.86;100986.09;5028862;28;20508;-65
2023/07/16 06:09:48;;;;;;;0.10;0.10;;;;;;;22.01;57.39;100994.47;5028934;28;20025;-64
2023/07/16 06:12:14;;;;;;;0.10;0.10;;;;;;;22.33;56.61;100991.75;5029385;28;20540;-66
2023/07/16 06:14:39;;;;;;;0.00;0.00;;;;;;;21.97;57.91;100994.25;5029742;28;20030;-63
2023/07/16 06:17:05;;;;;;;0.10;0.10;;;;;;;21.94;57.78;100991.28;5028949;28;20042;-66
2023/07/16 06:19:30;;;;;;;0.10;0.10;;;;;;;22.47;55.96;100987.94;5029384;28;20087;-66
2023/07/16 06:21:56;;;;;;;0.00;0.00;;;;;;;22.28;56.17;100992.66;5029372;28;20041;-65
2023/07/16 06:24:21;;;;;;;0.03;0.03;;;;;;;22.14;56.83;100989.06;5029134;28;20026;-64
2023/07/16 06:26:47;;;;;;;0.00;0.00;;;;;;;22.43;56.75;101000.59;5029973;28;20489;-64
2023/07/16 06:29:13;;;;;;;0.00;0.00;;;;;;;22.26;56.35;101011.31;5029480;28;20037;-64
2023/07/16 06:31:38;;;;;;;0.00;0.00;;;;;;;21.93;56.53;101006.09;5011140;28;20033;-63
2023/07/16 06:34:04;;;;;;;0.10;0.10;;;;;;;21.83;56.34;101007.88;5029078;28;20087;-66
2023/07/16 06:36:29;;;;;;;0.03;0.03;;;;;;;22.05;57.15;101015.50;5029223;28;20075;-64
2023/07/16 06:38:55;;;;;;;0.10;0.10;;;;;;;21.91;56.84;101013.78;5029123;28;20040;-65
2023/07/16 06:41:21;;;;;;;0.10;0.10;;;;;;;21.82;56.76;101013.63;5029706;28;20017;-64
2023/07/16 06:43:46;;;;;;;0.00;0.00;;;;;;;22.31;56.68;101007.69;5028572;28;20563;-64
2023/07/16 06:46:11;;;;;;;0.10;0.10;;;;;;;22.32;55.45;101012.03;5028928;28;20509;-64
2023/07/16 06:48:37;;;;;;;0.00;0.00;;;;;;;22.04;56.00;101008.38;5029168;28;20091;-63
2023/07/16 06:51:02;;;;;;;0.10;0.10;;;;;;;21.69;56.50;101017.06;5029023;28;20083;-63
2023/07/16 06:53:28;;;;;;;0.10;0.10;;;;;;;22.52;55.10;101014.44;5027673;28;20512;-64
2023/07/16 06:55:53;;;;;;;0.10;0.10;;;;;;;22.55;54.35;101011.91;5043496;28;20080;-62
2023/07/16 06:58:18;;;;;;;0.10;0.10;;;;;;;21.96;55.81;101009.03;5048849;28;20496;-64
2023/07/16 07:00:44;;;;;;;0.08;0.08;;;;;;;22.44;54.77;101017.88;5030223;28;20420;-64
2023/07/16 07:03:09;;;;;;;0.10;0.10;;;;;;;22.62;54.16;101031.53;5048809;28;20048;-63
2023/07/16 07:05:36;;;;;;;0.05;0.05;;;;;;;21.95;55.43;101020.28;5049584;28;20079;-62
2023/07/16 07:08:02;;;;;;;0.10;0.10;;;;;;;22.71;53.74;101017.97;5028977;28;20034;-62
2023/07/16 07:10:27;;;;;;;0.00;0.00;;;;;;;22.55;53.71;101028.34;5028602;28;20056;-63
2023/07/16 07:12:53;;;;;;;0.00;0.00;;;;;;;22.57;53.95;101036.28;5028756;28;20060;-64
2023/07/16 07:15:18;;;;;;;0.00;0.00;;;;;;;22.33;55.18;101030.06;5028685;28;20037;-64
2023/07/16 07:17:46;;;;;;;0.10;0.10;;;;;;;22.18;54.68;101031.16;5029178;28;20032;-66
2023/07/16 07:20:12;;;;;;;0.00;0.00;;;;;;;22.74;53.57;101028.34;5028433;28;20049;-64
2023/07/16 07:22:38;;;;;;;0.10;0.10;;;;;;;22.97;52.72;101019.13;5028922;28;20116;-64
2023/07/16 07:25:04;;;;;;;0.00;0.00;;;;;;;22.86;53.20;101039.59;5028620;28;20032;-64
2023/07/16 07:27:30;;;;;;;0.00;0.00;;;;;;;23.31;52.15;101037.97;5030503;28;20037;-65
2023/07/16 07:29:55;;;;;;;0.00;0.00;;;;;;;22.88;52.89;101028.38;5032145;28;20029;-65
2023/07/16 07:32:21;;;;;;;0.00;0.00;;;;;;;22.53;53.90;101037.97;5032581;28;20028;-63
2023/07/16 07:34:47;;;;;;;0.00;0.00;;;;;;;23.27;52.91;101034.97;5032416;28;20029;-65
2023/07/16 07:37:12;;;;;;;0.10;0.10;;;;;;;23.38;52.73;101039.19;5032343;28;20029;-63
2023/07/16 07:39:37;;;;;;;0.00;0.00;;;;;;;23.22;52.77;101037.00;5032047;28;20424;-63
2023/07/16 07:42:03;;;;;;;0.00;0.00;;;;;;;23.27;51.93;101037.72;5032012;28;20037;-63
2023/07/16 07:44:28;;;;;;;0.00;0.00;;;;;;;23.25;51.27;101044.66;5045301;28;20083;-62
2023/07/16 07:46:54;;;;;;;0.00;0.00;;;;;;;23.71;51.64;101053.56;5052169;28;20040;-64
2023/07/16 07:49:19;;;;;;;0.10;0.10;;;;;;;23.35;52.01;101053.50;5051969;28;20097;-64
2023/07/16 07:51:45;;;;;;;0.00;0.00;;;;;;;23.49;51.62;101051.56;5051959;28;20045;-63
2023/07/16 07:54:11;;;;;;;0.00;0.00;;;;;;;23.06;52.49;101076.78;5051520;28;20040;-62
2023/07/16 07:56:36;;;;;;;0.05;0.05;;;;;;;23.05;53.40;101069.69;5052273;28;20413;-61
2023/07/16 07:59:02;;;;;;;0.00;0.00;;;;;;;23.24;52.50;101074.00;5051470;28;20033;-63
2023/07/16 08:01:28;;;;;;;0.00;0.00;;;;;;;22.91;52.89;101080.66;5051790;28;20034;-64
2023/07/16 08:03:53;;;;;;;0.00;0.00;;;;;;;23.36;52.57;101088.06;5035675;28;20037;-62
2023/07/16 08:06:18;;;;;;;0.00;0.00;;;;;;;22.97;53.42;101086.84;5031713;28;20052;-62
2023/07/16 08:08:44;;;;;;;0.00;0.00;;;;;;;23.40;51.60;101096.47;5032606;28;20088;-62
2023/07/16 08:11:09;;;;;;;0.00;0.00;;;;;;;23.31;52.37;101090.09;5031267;28;20041;-63
2023/07/16 08:13:34;;;;;;;0.00;0.00;;;;;;;22.91;53.19;101108.06;5031399;28;20029;-65
2023/07/16 08:16:00;;;;;;;0.00;0.00;;;;;;;23.38;51.90;101098.72;5031647;28;20048;-63
2023/07/16 08:18:26;;;;;;;0.00;0.00;;;;;;;23.45;51.33;101088.97;5031657;28;20040;-64
2023/07/16 08:20:52;;;;;;;0.00;0.00;;;;;;;23.37;51.98;101117.09;5031324;28;20040;-64
2023/07/16 08:23:17;;;;;;;0.00;0.00;;;;;;;23.75;51.39;101100.44;5032035;28;20024;-63
2023/07/16 08:25:42;;;;;;;0.10;0.10;;;;;;;23.96;51.53;101101.63;5031173;28;20033;-64
2023/07/16 08:28:08;;;;;;;0.00;0.00;;;;;;;24.38;50.52;101098.50;5031397;28;20091;-63
2023/07/16 08:30:33;;;;;;;0.00;0.00;;;;;;;24.90;49.51;101088.72;5031022;28;20037;-62
2023/07/16 08:32:59;;;;;;;0.00;0.00;;;;;;;24.17;50.26;101113.81;5031253;28;20025;-63
2023/07/16 08:35:24;;;;;;;0.00;0.00;;;;;;;24.37;50.86;101097.69;5013746;28;20087;-62
2023/07/16 08:37:50;;;;;;;0.00;0.00;;;;;;;23.83;51.79;101097.78;5030415;28;20037;-64
2023/07/16 08:40:15;;;;;;;0.00;0.00;;;;;;;23.84;51.96;101104.09;5030720;28;20057;-62
2023/07/16 08:42:44;;;;;;;0.00;0.00;;;;;;;24.74;49.47;101107.53;5031204;28;20033;-62
2023/07/16 08:45:10;;;;;;;0.00;0.00;;;;;;;24.96;49.08;101103.97;5030966;28;20045;-64
2023/07/16 08:47:36;;;;;;;0.00;0.00;;;;;;;25.39;48.57;101107.75;5031525;28;20033;-63
2023/07/16 08:50:03;;;;;;;0.00;0.00;;;;;;;24.20;51.05;101121.44;5031045;28;20030;-64
2023/07/16 08:52:29;;;;;;;0.00;0.00;;;;;;;24.58;49.71;101113.69;5031006;28;20045;-62
2023/07/16 08:54:54;;;;;;;0.00;0.00;;;;;;;23.83;51.01;101125.22;5030717;28;20049;-64
2023/07/16 08:57:21;;;;;;;0.00;0.00;;;;;;;24.06;50.88;101137.94;5030768;28;20192;-63
2023/07/16 08:59:51;;;;;;;0.00;0.00;;;;;;;23.63;52.81;101135.78;5030884;28;20041;-65
2023/07/16 09:02:20;;;;;;;0.00;0.00;;;;;;;24.21;51.98;101125.81;5030902;28;20029;-63
2023/07/16 09:04:48;;;;;;;0.00;0.00;;;;;;;24.22;50.93;101133.75;5030751;28;20481;-64
2023/07/16 09:07:15;;;;;;;0.00;0.00;;;;;;;24.51;50.48;101141.59;5030825;28;20083;-64
2023/07/16 09:09:41;;;;;;;0.00;0.00;;;;;;;25.10;49.93;101137.72;5030184;28;20041;-64
2023/07/16 09:12:10;;;;;;;0.00;0.00;;;;;;;24.35;50.41;101130.13;5029826;28;20033;-64
2023/07/16 09:14:36;;;;;;;0.00;0.00;;;;;;;24.13;51.92;101149.34;5030806;28;20029;-63
2023/07/16 09:17:02;;;;;;;0.00;0.00;;;;;;;24.67;50.08;101144.81;5030450;28;20393;-66
2023/07/16 09:19:27;;;;;;;0.00;0.00;;;;;;;24.67;49.75;101142.06;5030098;28;20076;-64
2023/07/16 09:21:52;;;;;;;0.00;0.00;;;;;;;23.87;51.61;101148.22;5030403;28;20045;-64
2023/07/16 09:24:19;;;;;;;0.00;0.00;;;;;;;24.23;50.80;101151.03;5030178;28;20539;-64
2023/07/16 09:26:51;;;;;;;0.00;0.00;;;;;;;24.84;49.17;101150.47;5030880;28;20112;-64
2023/07/16 09:29:17;;;;;;;0.00;0.00;;;;;;;24.18;50.31;101148.41;5010599;28;20049;-63
2023/07/16 09:31:54;;;;;;;0.00;0.00;;;;;;;23.75;51.79;101155.31;5025541;28;20084;-64
2023/07/16 09:34:19;;;;;;;0.00;0.00;;;;;;;24.12;51.02;101163.34;5030100;28;20041;-64
2023/07/16 09:36:48;;;;;;;0.00;0.00;;;;;;;23.99;51.79;101161.41;5030350;28;20068;-63
2023/07/16 09:39:19;;;;;;;0.00;0.00;;;;;;;24.42;50.05;101165.44;5029693;28;20064;-61
2023/07/16 09:41:47;;;;;;;0.00;0.00;;;;;;;24.01;51.66;101170.97;5029291;28;20397;-63
2023/07/16 09:44:13;;;;;;;0.00;0.00;;;;;;;23.31;53.77;101170.41;5011506;28;20038;-62
2023/07/16 09:46:39;;;;;;;0.00;0.00;;;;;;;24.78;50.26;101162.72;5029990;28;20041;-63
2023/07/16 09:49:05;;;;;;;0.00;0.00;;;;;;;24.78;50.62;101195.69;5011519;28;20033;-64
2023/07/16 09:51:32;;;;;;;0.00;0.00;;;;;;;24.53;51.02;101183.31;5029443;28;20038;-63
2023/07/16 09:54:00;;;;;;;0.00;0.00;;;;;;;24.18;51.36;101179.44;5011756;28;20067;-63
2023/07/16 09:56:31;;;;;;;0.00;0.00;;;;;;;24.42;51.75;101182.75;5029688;28;20128;-62
2023/07/16 09:58:58;;;;;;;0.00;0.00;;;;;;;24.17;51.99;101182.50;5029654;28;20048;-63
2023/07/16 10:01:24;;;;;;;0.00;0.00;;;;;;;24.51;52.10;101193.78;5029547;28;20030;-63
2023/07/16 10:03:50;;;;;;;0.00;0.00;;;;;;;24.13;52.39;101198.78;5029694;28;20456;-64
2023/07/16 10:06:16;;;;;;;0.00;0.00;;;;;;;24.36;51.69;101210.63;5029383;28;20030;-62
2023/07/16 10:08:49;;;;;;;0.00;0.00;;;;;;;25.17;50.07;101215.09;5029983;28;20029;-62
2023/07/16 10:11:18;;;;;;;0.00;0.00;;;;;;;25.24;49.87;101208.00;5029696;28;20080;-62
2023/07/16 10:13:49;;;;;;;0.00;0.00;;;;;;;24.30;51.35;101222.84;5029105;28;20041;-64
2023/07/16 10:16:24;;;;;;;0.00;0.00;;;;;;;24.53;51.92;101215.50;5017649;28;20573;-62
2023/07/16 10:18:55;;;;;;;0.00;0.00;;;;;;;24.53;51.28;101219.03;5009432;28;20354;-62
2023/07/16 10:21:27;;;;;;;0.00;0.00;;;;;;;25.09;50.37;101211.16;5009401;28;20029;-62
2023/07/16 10:24:03;;;;;;;0.00;0.00;;;;;;;24.86;50.76;101237.03;5009220;28;20442;-63
2023/07/16 10:26:29;;;;;;;0.00;0.00;;;;;;;24.51;52.29;101245.22;5010116;28;20100;-63
2023/07/16 10:28:55;;;;;;;0.00;0.00;;;;;;;25.61;50.22;101220.56;5009468;28;20497;-61
2023/07/16 10:31:25;;;;;;;0.00;0.00;;;;;;;24.74;50.30;101241.44;5009108;28;20096;-63
2023/07/16 10:34:07;;;;;;;0.00;0.00;;;;;;;24.31;51.88;101241.75;5009979;28;20037;-62
2023/07/16 10:36:39;;;;;;;0.00;0.00;;;;;;;25.01;49.59;101242.16;5009889;28;20030;-62
2023/07/16 10:39:05;;;;;;;0.00;0.00;;;;;;;25.37;48.02;101242.09;5009269;28;20579;-64
2023/07/16 10:41:32;;;;;;;0.00;0.00;;;;;;;25.09;47.51;101230.41;5010164;28;20018;-63
2023/07/16 10:43:58;;;;;;;0.00;0.00;;;;;;;25.61;47.20;101233.53;5026533;28;20037;-65
2023/07/16 10:46:24;;;;;;;0.00;0.00;;;;;;;25.92;46.13;101234.31;5029060;28;20065;-63
2023/07/16 10:48:50;;;;;;;0.00;0.00;;;;;;;25.13;48.29;101258.91;5028976;28;20033;-63
2023/07/16 10:51:16;;;;;;;0.00;0.00;;;;;;;24.66;50.52;101239.38;5028571;28;20038;-64
2023/07/16 10:53:42;;;;;;;0.00;0.00;;;;;;;25.07;48.47;101246.41;5029693;28;20108;-63
2023/07/16 10:56:08;;;;;;;0.00;0.00;;;;;;;24.45;50.10;101240.94;5028724;28;20057;-63
2023/07/16 10:58:35;;;;;;;0.00;0.00;;;;;;;24.98;49.17;101247.47;5029259;28;20095;-63
2023/07/16 11:01:01;;;;;;;0.00;0.00;;;;;;;24.96;50.39;101261.50;5029021;28;20033;-64
2023/07/16 11:03:27;;;;;;;0.00;0.00;;;;;;;24.97;49.77;101260.41;5032162;28;20029;-63
2023/07/16 11:05:53;;;;;;;0.00;0.00;;;;;;;25.54;48.86;101250.47;5033071;28;20116;-63
2023/07/16 11:08:25;;;;;;;0.00;0.00;;;;;;;25.67;48.24;101252.31;5033003;28;20026;-63
2023/07/16 11:10:55;;;;;;;0.00;0.00;;;;;;;25.77;47.56;101252.06;5032340;28;20034;-63
2023/07/16 11:13:27;;;;;;;0.00;0.00;;;;;;;25.50;48.03;101245.91;5032533;28;20037;-64
2023/07/16 11:15:53;;;;;;;0.00;0.00;;;;;;;25.75;47.62;101251.56;5014442;28;20490;-63
2023/07/16 11:18:18;;;;;;;0.00;0.00;;;;;;;26.03;47.50;101254.94;5014790;28;20030;-64
2023/07/16 11:20:44;;;;;;;0.00;0.00;;;;;;;25.47;48.06;101263.06;5033448;28;20029;-62